createdAt,value
2018-07-02T00:00:32.129Z,13.12
2018-07-02T00:03:00.965Z,13.07
2018-07-02T00:05:40.791Z,13.03
2018-07-02T00:08:10.797Z,13.00
2018-07-02T00:10:40.094Z,12.95
2018-07-02T00:13:09.116Z,12.95
2018-07-02T00:15:39.202Z,12.94
2018-07-02T00:18:09.651Z,12.94
2018-07-02T00:20:38.537Z,12.94
2018-07-02T00:23:08.462Z,12.92
2018-07-02T00:25:37.363Z,12.94
2018-07-02T00:28:06.734Z,12.94
2018-07-02T00:30:35.554Z,12.92
2018-07-02T00:33:05.139Z,12.92
2018-07-02T00:35:33.941Z,12.91
2018-07-02T00:38:02.739Z,12.90
2018-07-02T00:40:32.504Z,12.90
2018-07-02T00:43:01.980Z,12.90
2018-07-02T00:45:30.779Z,12.88
2018-07-02T00:47:59.562Z,12.89
2018-07-02T00:50:28.450Z,12.89
2018-07-02T00:52:57.226Z,12.86
2018-07-02T00:55:26.918Z,12.81
2018-07-02T00:57:55.741Z,12.80
2018-07-02T01:00:24.566Z,12.74
2018-07-02T01:02:53.492Z,12.64
2018-07-02T01:05:22.304Z,12.55
2018-07-02T01:07:52.251Z,12.48
2018-07-02T01:10:21.082Z,12.40
2018-07-02T01:12:49.874Z,12.32
2018-07-02T01:15:19.308Z,12.20
2018-07-02T01:17:48.844Z,12.09
2018-07-02T01:20:18.474Z,11.98
2018-07-02T01:22:48.077Z,11.88
2018-07-02T01:25:17.746Z,11.76
2018-07-02T01:27:47.183Z,11.66
2018-07-02T01:30:16.766Z,11.58
2018-07-02T01:32:45.549Z,11.49
2018-07-02T01:35:15.163Z,11.42
2018-07-02T01:37:44.222Z,11.36
2018-07-02T01:40:14.306Z,11.30
2018-07-02T01:42:44.167Z,11.24
2018-07-02T01:45:14.031Z,11.23
2018-07-02T01:47:43.353Z,11.17
2018-07-02T01:50:12.531Z,11.12
2018-07-02T01:52:41.519Z,11.03
2018-07-02T01:55:11.220Z,10.99
2018-07-02T01:57:41.114Z,10.93
2018-07-02T02:00:10.198Z,10.94
2018-07-02T02:02:39.051Z,10.90
2018-07-02T02:05:07.847Z,10.85
2018-07-02T02:07:37.486Z,10.75
2018-07-02T02:10:06.370Z,10.69
2018-07-02T02:12:35.137Z,10.65
2018-07-02T02:15:05.064Z,10.59
2018-07-02T02:17:34.770Z,10.55
2018-07-02T02:20:04.215Z,10.52
2018-07-02T02:22:34.117Z,10.48
2018-07-02T02:25:03.583Z,10.48
2018-07-02T02:27:32.358Z,10.49
2018-07-02T02:30:02.603Z,10.51
2018-07-02T02:32:31.581Z,10.52
2018-07-02T02:35:00.384Z,10.53
2018-07-02T02:37:29.243Z,10.52
2018-07-02T02:39:59.041Z,10.52
2018-07-02T02:42:27.856Z,10.54
2018-07-02T02:44:56.668Z,10.54
2018-07-02T02:47:25.502Z,10.54
2018-07-02T02:49:54.315Z,10.56
2018-07-02T02:52:23.272Z,10.59
2018-07-02T02:54:52.823Z,10.79
2018-07-02T02:57:22.384Z,11.57
2018-07-02T02:59:51.192Z,12.37
2018-07-02T03:02:20.031Z,13.15
2018-07-02T03:04:48.869Z,13.89
2018-07-02T03:07:18.362Z,14.63
2018-07-02T03:09:47.244Z,15.35
2018-07-02T03:12:16.010Z,16.12
2018-07-02T03:14:45.891Z,16.78
2018-07-02T03:17:15.495Z,17.33
2018-07-02T03:19:45.497Z,17.71
2018-07-02T03:22:16.618Z,18.02
2018-07-02T03:24:46.317Z,18.64
2018-07-02T03:27:16.323Z,19.26
2018-07-02T03:29:45.968Z,19.84
2018-07-02T03:32:15.936Z,20.48
2018-07-02T03:34:45.593Z,20.92
2018-07-02T03:37:14.893Z,21.33
2018-07-02T03:39:44.526Z,21.62
2018-07-02T03:42:14.094Z,21.89
2018-07-02T03:44:43.170Z,22.02
2018-07-02T03:47:12.683Z,22.18
2018-07-02T03:49:41.701Z,22.27
2018-07-02T03:52:10.641Z,22.44
2018-07-02T03:54:40.240Z,22.71
2018-07-02T03:57:10.131Z,22.74
2018-07-02T03:59:38.933Z,22.80
2018-07-02T04:02:07.782Z,23.11
2018-07-02T04:04:36.637Z,23.20
2018-07-02T04:07:06.294Z,23.21
2018-07-02T04:09:35.662Z,23.30
2018-07-02T04:12:04.483Z,23.05
2018-07-02T04:14:33.960Z,22.66
2018-07-02T04:17:03.909Z,22.17
2018-07-02T04:19:33.344Z,21.76
2018-07-02T04:22:02.738Z,21.28
2018-07-02T04:24:32.416Z,20.66
2018-07-02T04:27:01.268Z,20.14
2018-07-02T04:29:30.851Z,19.55
2018-07-02T04:32:00.524Z,18.91
2018-07-02T04:34:29.312Z,18.51
2018-07-02T04:36:58.162Z,17.94
2018-07-02T04:39:26.993Z,17.64
2018-07-02T04:41:55.806Z,17.50
2018-07-02T04:44:24.727Z,17.33
2018-07-02T04:46:53.607Z,17.21
2018-07-02T04:49:22.413Z,17.04
2018-07-02T04:51:51.197Z,16.85
2018-07-02T04:54:20.823Z,16.64
2018-07-02T04:56:50.230Z,16.52
2018-07-02T04:59:19.122Z,16.54
2018-07-02T05:01:47.935Z,16.59
2018-07-02T05:04:16.930Z,16.52
2018-07-02T05:06:46.498Z,16.46
2018-07-02T05:09:16.378Z,16.37
2018-07-02T05:11:45.345Z,16.31
2018-07-02T05:14:15.155Z,16.30
2018-07-02T05:16:45.078Z,16.26
2018-07-02T05:19:15.364Z,16.32
2018-07-02T05:21:45.264Z,16.45
2018-07-02T05:24:15.539Z,16.45
2018-07-02T05:26:46.366Z,16.43
2018-07-02T05:29:16.026Z,16.48
2018-07-02T05:31:45.787Z,16.54
2018-07-02T05:34:14.997Z,16.62
2018-07-02T05:36:44.629Z,16.66
2018-07-02T05:39:13.792Z,16.65
2018-07-02T05:41:43.929Z,16.68
2018-07-02T05:44:12.982Z,16.76
2018-07-02T05:46:41.999Z,16.85
2018-07-02T05:49:10.894Z,16.88
2018-07-02T05:51:39.683Z,16.95
2018-07-02T05:54:08.599Z,16.99
2018-07-02T05:56:38.398Z,17.00
2018-07-02T05:59:07.611Z,17.04
2018-07-02T06:01:36.445Z,17.03
2018-07-02T06:04:05.288Z,17.12
2018-07-02T06:06:34.710Z,17.14
2018-07-02T06:09:05.090Z,17.29
2018-07-02T06:11:33.826Z,17.40
2018-07-02T06:14:03.670Z,17.48
2018-07-02T06:16:33.255Z,17.63
2018-07-02T06:19:02.873Z,17.70
2018-07-02T06:21:31.613Z,17.80
2018-07-02T06:24:01.199Z,17.85
2018-07-02T06:26:29.933Z,17.89
2018-07-02T06:28:59.241Z,17.96
2018-07-02T06:31:28.774Z,17.99
2018-07-02T06:33:57.522Z,18.10
2018-07-02T06:36:26.263Z,18.18
2018-07-02T06:38:55.091Z,18.25
2018-07-02T06:41:23.866Z,18.34
2018-07-02T06:43:52.903Z,18.47
2018-07-02T06:46:21.772Z,18.51
2018-07-02T06:51:33.708Z,18.50
2018-07-02T06:54:03.457Z,18.58
2018-07-02T06:56:33.035Z,18.69
2018-07-02T06:59:01.842Z,18.79
2018-07-02T07:01:30.591Z,18.89
2018-07-02T07:03:59.721Z,18.94
2018-07-02T07:06:29.205Z,18.99
2018-07-02T07:08:58.398Z,19.10
2018-07-02T07:11:27.122Z,19.25
2018-07-02T07:13:56.569Z,19.27
2018-07-02T07:16:25.847Z,19.34
2018-07-02T07:18:55.411Z,19.51
2018-07-02T07:21:24.179Z,19.60
2018-07-02T07:23:53.584Z,19.62
2018-07-02T07:26:22.332Z,19.64
2018-07-02T07:28:51.668Z,19.68
2018-07-02T07:31:21.098Z,19.83
2018-07-02T07:33:49.948Z,19.96
2018-07-02T07:36:19.423Z,20.04
2018-07-02T07:38:48.213Z,20.15
2018-07-02T07:41:17.190Z,20.28
2018-07-02T07:43:46.082Z,20.40
2018-07-02T07:46:15.187Z,20.47
2018-07-02T07:48:44.706Z,20.51
2018-07-02T07:51:13.984Z,20.54
2018-07-02T07:53:42.967Z,20.64
2018-07-02T07:56:13.287Z,20.77
2018-07-02T07:58:42.175Z,20.84
2018-07-02T08:01:10.970Z,20.95
2018-07-02T08:03:39.808Z,21.02
2018-07-02T08:06:09.669Z,21.06
2018-07-02T08:08:38.426Z,21.07
2018-07-02T08:11:07.219Z,21.14
2018-07-02T08:13:36.976Z,21.13
2018-07-02T08:16:06.485Z,21.15
2018-07-02T08:18:36.362Z,21.22
2018-07-02T08:21:05.123Z,21.25
2018-07-02T08:23:34.371Z,21.31
2018-07-02T08:26:03.223Z,21.31
2018-07-02T08:28:32.735Z,21.34
2018-07-02T08:31:02.552Z,21.41
2018-07-02T08:33:31.354Z,21.45
2018-07-02T08:36:00.121Z,21.47
2018-07-02T08:38:28.989Z,21.53
2018-07-02T08:40:57.786Z,21.59
2018-07-02T08:43:26.642Z,21.57
2018-07-02T08:45:55.379Z,21.61
2018-07-02T08:48:24.338Z,21.61
2018-07-02T08:50:53.094Z,21.52
2018-07-02T08:53:21.878Z,21.59
2018-07-02T08:55:51.614Z,21.81
2018-07-02T08:58:20.442Z,21.97
2018-07-02T09:00:49.178Z,22.14
2018-07-02T09:03:17.969Z,22.24
2018-07-02T09:05:47.751Z,22.29
2018-07-02T09:08:16.730Z,22.44
2018-07-02T09:10:45.710Z,22.52
2018-07-02T09:13:15.825Z,22.52
2018-07-02T09:15:46.150Z,22.56
2018-07-02T09:18:16.186Z,22.59
2018-07-02T09:20:45.132Z,22.71
2018-07-02T09:23:14.824Z,22.74
2018-07-02T09:25:43.578Z,22.68
2018-07-02T09:28:13.842Z,22.67
2018-07-02T09:30:42.627Z,22.68
2018-07-02T09:33:13.268Z,22.62
2018-07-02T09:35:42.035Z,22.56
2018-07-02T09:38:10.867Z,22.54
2018-07-02T09:40:39.701Z,22.41
2018-07-02T09:43:08.450Z,22.53
2018-07-02T09:45:37.355Z,22.62
2018-07-02T09:48:06.186Z,22.70
2018-07-02T09:50:34.931Z,22.70
2018-07-02T09:53:03.711Z,22.64
2018-07-02T09:55:33.312Z,22.46
2018-07-02T09:58:02.074Z,22.38
2018-07-02T10:00:30.911Z,22.28
2018-07-02T10:02:59.723Z,22.23
2018-07-02T10:05:28.494Z,22.18
2018-07-02T10:07:57.883Z,22.10
2018-07-02T10:10:27.594Z,22.16
2018-07-02T10:12:56.327Z,22.19
2018-07-02T10:15:26.144Z,22.17
2018-07-02T10:17:55.645Z,22.21
2018-07-02T10:20:25.054Z,22.37
2018-07-02T10:22:54.798Z,22.51
2018-07-02T10:25:23.809Z,22.57
2018-07-02T10:27:52.567Z,22.72
2018-07-02T10:30:22.512Z,22.81
2018-07-02T10:32:52.056Z,22.88
2018-07-02T10:35:20.909Z,22.91
2018-07-02T10:37:49.694Z,22.91
2018-07-02T10:40:19.518Z,22.93
2018-07-02T10:42:48.614Z,23.02
2018-07-02T10:45:17.985Z,23.09
2018-07-02T10:47:47.070Z,23.18
2018-07-02T10:50:16.424Z,23.25
2018-07-02T10:52:46.943Z,23.27
2018-07-02T10:55:17.134Z,23.21
2018-07-02T10:57:46.699Z,23.23
2018-07-02T11:00:17.295Z,23.23
2018-07-02T11:02:46.381Z,23.28
2018-07-02T11:05:15.179Z,23.36
2018-07-02T11:07:44.929Z,23.36
2018-07-02T11:10:13.672Z,23.48
2018-07-02T11:12:42.414Z,23.53
2018-07-02T11:15:11.962Z,23.58
2018-07-02T11:17:41.422Z,23.59
2018-07-02T11:20:11.107Z,23.57
2018-07-02T11:22:40.863Z,23.62
2018-07-02T11:25:10.290Z,23.65
2018-07-02T11:27:39.087Z,23.63
2018-07-02T11:30:08.628Z,23.62
2018-07-02T11:32:38.289Z,23.71
2018-07-02T11:35:07.045Z,23.75
2018-07-02T11:37:35.862Z,23.87
2018-07-02T11:40:04.742Z,23.82
2018-07-02T11:42:33.703Z,23.80
2018-07-02T11:45:02.595Z,23.83
2018-07-02T11:47:31.802Z,23.80
2018-07-02T11:50:00.586Z,23.85
2018-07-02T11:52:29.358Z,23.98
2018-07-02T11:54:59.325Z,24.11
2018-07-02T11:57:29.452Z,24.03
2018-07-02T11:59:58.203Z,24.07
2018-07-02T12:02:27.007Z,24.14
2018-07-02T12:04:56.617Z,24.21
2018-07-02T12:07:28.999Z,24.24
2018-07-02T12:09:57.752Z,24.20
2018-07-02T12:12:26.515Z,24.15
2018-07-02T12:14:56.082Z,24.12
2018-07-02T12:17:25.511Z,24.02
2018-07-02T12:19:54.773Z,24.03
2018-07-02T12:22:24.359Z,24.00
2018-07-02T12:24:53.915Z,24.12
2018-07-02T12:27:22.753Z,24.16
2018-07-02T12:29:52.429Z,24.20
2018-07-02T12:32:22.066Z,24.24
2018-07-02T12:34:50.791Z,24.35
2018-07-02T12:37:19.668Z,24.40
2018-07-02T12:39:48.770Z,24.42
2018-07-02T12:42:18.130Z,24.39
2018-07-02T12:44:47.212Z,24.43
2018-07-02T12:47:16.109Z,24.43
2018-07-02T12:49:44.907Z,24.39
2018-07-02T12:52:13.660Z,24.40
2018-07-02T12:54:43.485Z,24.51
2018-07-02T12:57:13.180Z,24.53
2018-07-02T12:59:41.939Z,24.49
2018-07-02T13:02:11.564Z,24.54
2018-07-02T13:05:44.469Z,24.56
2018-07-02T13:08:13.221Z,24.55
2018-07-02T13:10:42.050Z,24.51
2018-07-02T13:13:10.822Z,24.63
2018-07-02T13:15:40.545Z,24.74
2018-07-02T13:18:10.253Z,24.76
2018-07-02T13:20:39.011Z,24.79
2018-07-02T13:23:08.534Z,24.75
2018-07-02T13:25:37.457Z,24.72
2018-07-02T13:28:07.242Z,24.71
2018-07-02T13:30:36.016Z,24.79
2018-07-02T13:33:05.566Z,24.89
2018-07-02T13:35:34.969Z,24.92
2018-07-02T13:38:03.796Z,25.00
2018-07-02T13:40:32.647Z,25.02
2018-07-02T13:43:01.529Z,25.06
2018-07-02T13:45:30.464Z,25.06
2018-07-02T13:47:59.495Z,25.04
2018-07-02T13:50:28.304Z,25.07
2018-07-02T13:52:57.103Z,25.12
2018-07-02T13:55:26.652Z,25.08
2018-07-02T13:57:55.550Z,25.03
2018-07-02T14:00:25.374Z,24.95
2018-07-02T14:02:54.229Z,24.99
2018-07-02T14:05:23.082Z,25.05
2018-07-02T14:07:53.742Z,25.03
2018-07-02T14:10:22.536Z,25.01
2018-07-02T14:12:52.291Z,25.02
2018-07-02T14:15:21.821Z,25.06
2018-07-02T14:17:52.468Z,25.05
2018-07-02T14:20:21.900Z,25.11
2018-07-02T14:22:51.431Z,25.12
2018-07-02T14:25:20.179Z,25.18
2018-07-02T14:27:49.136Z,25.25
2018-07-02T14:30:19.218Z,25.33
2018-07-02T14:32:49.742Z,25.39
2018-07-02T14:35:19.192Z,25.35
2018-07-02T14:37:48.344Z,25.34
2018-07-02T14:40:17.822Z,25.48
2018-07-02T14:42:47.020Z,25.63
2018-07-02T14:45:16.919Z,25.72
2018-07-02T14:47:46.197Z,25.62
2018-07-02T14:50:14.938Z,25.49
2018-07-02T14:52:43.681Z,25.37
2018-07-02T14:55:13.126Z,25.42
2018-07-02T14:57:42.607Z,25.51
2018-07-02T15:00:11.423Z,25.61
2018-07-02T15:02:40.204Z,25.67
2018-07-02T15:05:08.978Z,25.65
2018-07-02T15:07:38.458Z,25.71
2018-07-02T15:10:07.262Z,25.80
2018-07-02T15:12:36.002Z,25.86
2018-07-02T15:15:05.919Z,25.86
2018-07-02T15:17:35.351Z,25.87
2018-07-02T15:20:05.241Z,25.82
2018-07-02T15:22:34.953Z,25.73
2018-07-02T15:25:04.402Z,25.83
2018-07-02T15:27:33.160Z,26.15
2018-07-02T15:30:02.832Z,26.57
2018-07-02T15:32:32.414Z,27.02
2018-07-02T15:35:01.517Z,27.43
2018-07-02T15:37:30.344Z,28.02
2018-07-02T15:39:59.238Z,28.47
2018-07-02T15:42:28.018Z,28.71
2018-07-02T15:44:56.895Z,28.88
2018-07-02T15:47:25.727Z,29.23
2018-07-02T15:49:54.469Z,29.68
2018-07-02T15:52:23.187Z,29.57
2018-07-02T15:54:52.886Z,29.85
2018-07-02T15:57:23.190Z,30.08
2018-07-02T15:59:57.224Z,30.26
2018-07-02T16:02:26.069Z,30.46
2018-07-02T16:04:54.826Z,30.92
2018-07-02T16:07:24.538Z,31.21
2018-07-02T16:09:53.298Z,31.41
2018-07-02T16:12:22.116Z,31.43
2018-07-02T16:14:51.488Z,31.46
2018-07-02T16:17:20.769Z,31.51
2018-07-02T16:19:50.066Z,31.44
2018-07-02T16:22:19.852Z,30.83
2018-07-02T16:24:49.701Z,30.88
2018-07-02T16:27:19.094Z,30.92
2018-07-02T16:29:49.018Z,31.00
2018-07-02T16:32:18.825Z,31.17
2018-07-02T16:34:48.582Z,31.35
2018-07-02T16:37:18.075Z,31.80
2018-07-02T16:39:47.081Z,31.70
2018-07-02T16:42:16.758Z,30.92
2018-07-02T16:44:46.866Z,30.31
2018-07-02T16:47:15.719Z,29.87
2018-07-02T16:49:44.562Z,29.52
2018-07-02T16:52:14.380Z,28.97
2018-07-02T16:54:44.126Z,28.70
2018-07-02T16:57:13.409Z,28.55
2018-07-02T16:59:42.161Z,28.58
2018-07-02T17:02:10.958Z,28.44
2018-07-02T17:04:39.746Z,28.67
2018-07-02T17:07:09.161Z,28.98
2018-07-02T17:09:37.906Z,29.18
2018-07-02T17:12:06.757Z,28.57
2018-07-02T17:14:36.111Z,28.26
2018-07-02T17:17:06.091Z,27.70
2018-07-02T17:19:35.949Z,27.46
2018-07-02T17:22:05.667Z,27.21
2018-07-02T17:24:35.117Z,26.83
2018-07-02T17:27:03.910Z,27.30
2018-07-02T17:29:33.866Z,27.33
2018-07-02T17:32:04.123Z,26.98
2018-07-02T17:34:32.875Z,26.56
2018-07-02T17:37:01.634Z,26.02
2018-07-02T17:39:30.456Z,25.80
2018-07-02T17:41:59.442Z,25.46
2018-07-02T17:44:28.346Z,25.38
2018-07-02T17:46:58.130Z,25.34
2018-07-02T17:49:27.852Z,25.11
2018-07-02T17:51:57.474Z,24.88
2018-07-02T17:54:27.910Z,24.65
2018-07-02T17:56:57.595Z,24.39
2018-07-02T17:59:26.442Z,24.15
2018-07-02T18:01:55.181Z,23.99
2018-07-02T18:04:23.965Z,23.81
2018-07-02T18:06:52.774Z,23.73
2018-07-02T18:09:21.742Z,23.64
2018-07-02T18:11:51.312Z,23.50
2018-07-02T18:14:20.851Z,23.50
2018-07-02T18:16:50.474Z,23.44
2018-07-02T18:19:20.111Z,23.37
2018-07-02T18:21:50.917Z,23.27
2018-07-02T18:24:20.532Z,23.19
2018-07-02T18:26:49.393Z,23.13
2018-07-02T18:29:19.120Z,23.08
2018-07-02T18:31:49.034Z,22.98
2018-07-02T18:34:19.280Z,22.85
2018-07-02T18:36:49.036Z,22.77
2018-07-02T18:39:18.090Z,22.67
2018-07-02T18:41:47.054Z,22.56
2018-07-02T18:44:16.321Z,22.44
2018-07-02T18:46:45.122Z,22.26
2018-07-02T18:49:14.909Z,22.14
2018-07-02T18:51:43.730Z,21.98
2018-07-02T18:54:12.510Z,21.85
2018-07-02T18:56:42.552Z,21.79
2018-07-02T18:59:11.336Z,21.72
2018-07-02T19:01:40.133Z,21.73
2018-07-02T19:04:08.962Z,21.70
2018-07-02T19:06:37.729Z,21.64
2018-07-02T19:09:10.015Z,21.63
2018-07-02T19:11:39.787Z,21.58
2018-07-02T19:14:09.508Z,21.51
2018-07-02T19:16:39.228Z,21.45
2018-07-02T19:19:08.671Z,21.36
2018-07-02T19:21:37.652Z,21.28
2018-07-02T19:24:07.419Z,21.20
2018-07-02T19:26:36.226Z,21.13
2018-07-02T19:29:05.886Z,21.08
2018-07-02T19:31:35.792Z,21.01
2018-07-02T19:34:04.643Z,20.87
2018-07-02T19:36:33.413Z,20.77
2018-07-02T19:39:02.203Z,20.71
2018-07-02T19:41:30.990Z,20.67
2018-07-02T19:43:59.871Z,20.60
2018-07-02T19:46:29.567Z,20.52
2018-07-02T19:48:59.191Z,20.48
2018-07-02T19:51:27.986Z,20.49
2018-07-02T19:53:56.786Z,20.44
2018-07-02T19:56:26.821Z,20.36
2018-07-02T19:58:55.638Z,20.34
2018-07-02T20:01:25.168Z,20.32
2018-07-02T20:03:53.973Z,20.33
2018-07-02T20:06:22.792Z,20.31
2018-07-02T20:08:51.594Z,20.32
2018-07-02T20:11:21.309Z,20.33
2018-07-02T20:13:50.966Z,20.31
2018-07-02T20:16:20.512Z,20.23
2018-07-02T20:18:50.048Z,20.18
2018-07-02T20:21:18.959Z,20.17
2018-07-02T20:23:48.902Z,20.16
2018-07-02T20:26:17.999Z,20.12
2018-07-02T20:28:47.878Z,20.12
2018-07-02T20:31:17.663Z,20.08
2018-07-02T20:33:46.697Z,20.04
2018-07-02T20:36:16.041Z,20.03
2018-07-02T20:38:45.394Z,20.00
2018-07-02T20:41:14.310Z,20.00
2018-07-02T20:43:43.930Z,20.01
2018-07-02T20:46:12.683Z,20.01
2018-07-02T20:48:41.430Z,20.01
2018-07-02T20:51:10.250Z,20.00
2018-07-02T20:53:39.450Z,19.99
2018-07-02T20:56:09.805Z,19.96
2018-07-02T20:58:38.582Z,19.96
2018-07-02T21:01:07.415Z,19.94
2018-07-02T21:03:36.221Z,19.92
2018-07-02T21:06:05.018Z,19.89
2018-07-02T21:08:33.926Z,19.87
2018-07-02T21:11:03.492Z,19.84
2018-07-02T21:13:33.147Z,19.77
2018-07-02T21:16:03.021Z,19.71
2018-07-02T21:18:32.567Z,19.68
2018-07-02T21:21:01.370Z,19.63
2018-07-02T21:23:30.609Z,19.60
2018-07-02T21:25:59.397Z,19.54
2018-07-02T21:28:28.815Z,19.46
2018-07-02T21:30:58.483Z,19.35
2018-07-02T21:33:27.241Z,19.31
2018-07-02T21:35:56.019Z,19.28
2018-07-02T21:38:24.803Z,19.21
2018-07-02T21:40:54.830Z,19.12
2018-07-02T21:43:23.583Z,19.05
2018-07-02T21:45:53.125Z,19.01
2018-07-02T21:48:22.467Z,18.94
2018-07-02T21:50:51.261Z,18.91
2018-07-02T21:53:21.013Z,18.92
2018-07-02T21:55:50.579Z,18.92
2018-07-02T21:58:19.403Z,18.94
2018-07-02T22:00:49.283Z,18.92
2018-07-02T22:03:18.598Z,18.90
2018-07-02T22:05:47.673Z,18.84
2018-07-02T22:08:16.739Z,18.78
2018-07-02T22:10:46.118Z,18.72
2018-07-02T22:13:16.363Z,18.70
2018-07-02T22:15:46.743Z,18.67
2018-07-02T22:18:16.874Z,18.69
2018-07-02T22:20:45.693Z,18.67
2018-07-02T22:23:15.235Z,18.66
2018-07-02T22:25:44.008Z,18.61
2018-07-02T22:28:13.695Z,18.62
2018-07-02T22:30:42.686Z,18.64
2018-07-02T22:33:12.182Z,18.59
2018-07-02T22:35:40.967Z,18.58
2018-07-02T22:38:10.229Z,18.58
2018-07-02T22:40:39.033Z,18.52
2018-07-02T22:43:07.853Z,18.46
2018-07-02T22:45:36.649Z,18.44
2018-07-02T22:48:05.439Z,18.42
2018-07-02T22:50:34.319Z,18.40
2018-07-02T22:53:03.271Z,18.39
2018-07-02T22:55:41.348Z,18.36
2018-07-02T22:58:10.094Z,18.35
2018-07-02T23:00:38.850Z,18.31
2018-07-02T23:03:07.753Z,18.27
2018-07-02T23:05:36.615Z,18.24
2018-07-02T23:08:05.498Z,18.21
2018-07-02T23:10:34.618Z,18.20
2018-07-02T23:13:04.223Z,18.15
2018-07-02T23:15:34.219Z,18.18
2018-07-02T23:18:04.004Z,18.17
2018-07-02T23:20:32.752Z,18.19
2018-07-02T23:23:03.726Z,18.20
2018-07-02T23:25:32.507Z,18.19
2018-07-02T23:28:02.280Z,18.17
2018-07-02T23:30:33.005Z,18.11
2018-07-02T23:33:02.486Z,18.06
2018-07-02T23:35:32.174Z,18.03
2018-07-02T23:38:00.948Z,17.99
2018-07-02T23:40:29.759Z,17.94
2018-07-02T23:42:58.631Z,17.91
2018-07-02T23:45:27.420Z,17.88
2018-07-02T23:47:56.774Z,17.85
2018-07-02T23:50:25.618Z,17.82
2018-07-02T23:52:54.406Z,17.80
2018-07-02T23:55:24.233Z,17.77
2018-07-02T23:57:53.029Z,17.74
